TN70 weather

Burkeen Field
Collierville, Tennessee, United States

Public forecast

Using degrees Fahrenheit for public forecast. Weather courtesy of forecast.io.

METAR (pilot weather report)

Closest report is Olive Branch Airport, 5.0 nm (9.3 km) SW. Retrieved 2019/09/16 07:35 UTC (2 minutes ago):

KOLV 160735Z AUTO 00000KT 10SM 21/20 A3007 RMK A01

TAF (pilot weather forecast)

Closest forecast is Memphis International Airport, 13.5 nm (25.0 km) W. Retrieved 2019/09/16 06:22 UTC (1 hour ago):

TAF KMEM 160520Z 1606/1712 VRB02KT P6SM SKC FM161700 03005KT P6SM FEW050 FM170000 VRB03KT P6SM SKC